sensor_id;sensor_type;location;lat;lon;timestamp;pressure;altitude;pressure_sealevel;temperature;humidity
250;BME280;109;19.806;-70.704;2023-12-28T00:01:46;101298.78;;;25.51;47.80
250;BME280;109;19.806;-70.704;2023-12-28T00:04:13;101291.44;;;26.15;47.02
250;BME280;109;19.806;-70.704;2023-12-28T00:06:39;101289.00;;;26.12;46.93
250;BME280;109;19.806;-70.704;2023-12-28T00:09:07;101291.00;;;25.84;46.99
250;BME280;109;19.806;-70.704;2023-12-28T00:11:33;101292.59;;;25.62;47.46
250;BME280;109;19.806;-70.704;2023-12-28T00:14:00;101311.53;;;25.49;47.84
250;BME280;109;19.806;-70.704;2023-12-28T00:16:27;101305.06;;;25.39;48.25
250;BME280;109;19.806;-70.704;2023-12-28T00:18:54;101311.00;;;25.31;48.43
250;BME280;109;19.806;-70.704;2023-12-28T00:21:20;101308.63;;;25.27;48.63
250;BME280;109;19.806;-70.704;2023-12-28T00:23:49;101312.84;;;25.31;48.20
250;BME280;109;19.806;-70.704;2023-12-28T00:26:16;101315.34;;;25.34;48.11
250;BME280;109;19.806;-70.704;2023-12-28T00:28:57;101313.16;;;25.39;47.98
250;BME280;109;19.806;-70.704;2023-12-28T00:31:24;101314.13;;;25.38;47.76
250;BME280;109;19.806;-70.704;2023-12-28T00:33:50;101317.06;;;25.47;47.56
250;BME280;109;19.806;-70.704;2023-12-28T00:36:17;101313.38;;;25.36;47.72
250;BME280;109;19.806;-70.704;2023-12-28T00:38:44;101312.63;;;25.84;46.75
250;BME280;109;19.806;-70.704;2023-12-28T00:41:10;101317.06;;;25.35;48.02
250;BME280;109;19.806;-70.704;2023-12-28T00:43:37;101316.72;;;25.52;47.76
250;BME280;109;19.806;-70.704;2023-12-28T00:46:03;101311.84;;;25.19;48.48
250;BME280;109;19.806;-70.704;2023-12-28T00:48:30;101316.66;;;25.14;48.47
250;BME280;109;19.806;-70.704;2023-12-28T00:50:56;101318.34;;;25.42;47.91
250;BME280;109;19.806;-70.704;2023-12-28T00:53:26;101319.47;;;25.12;48.07
250;BME280;109;19.806;-70.704;2023-12-28T00:55:59;101320.69;;;25.08;48.10
250;BME280;109;19.806;-70.704;2023-12-28T00:58:27;101317.41;;;25.03;48.33
250;BME280;109;19.806;-70.704;2023-12-28T01:01:00;101319.22;;;25.55;47.03
250;BME280;109;19.806;-70.704;2023-12-28T01:03:27;101329.34;;;24.87;48.63
250;BME280;109;19.806;-70.704;2023-12-28T01:06:00;101335.66;;;25.00;47.92
250;BME280;109;19.806;-70.704;2023-12-28T01:08:26;101333.47;;;24.79;48.38
250;BME280;109;19.806;-70.704;2023-12-28T01:10:59;101328.94;;;24.66;48.85
250;BME280;109;19.806;-70.704;2023-12-28T01:13:27;101330.75;;;24.79;48.17
250;BME280;109;19.806;-70.704;2023-12-28T01:16:00;101341.66;;;24.64;48.57
250;BME280;109;19.806;-70.704;2023-12-28T01:18:26;101340.19;;;24.45;48.80
250;BME280;109;19.806;-70.704;2023-12-28T01:20:58;101340.38;;;24.57;48.62
250;BME280;109;19.806;-70.704;2023-12-28T01:23:25;101339.31;;;24.45;48.90
250;BME280;109;19.806;-70.704;2023-12-28T01:26:01;101346.84;;;24.40;49.11
250;BME280;109;19.806;-70.704;2023-12-28T01:28:28;101352.94;;;24.43;49.17
250;BME280;109;19.806;-70.704;2023-12-28T01:31:09;101355.25;;;24.35;49.42
250;BME280;109;19.806;-70.704;2023-12-28T01:33:50;101347.31;;;24.46;49.12
250;BME280;109;19.806;-70.704;2023-12-28T01:36:20;101351.19;;;24.42;48.88
250;BME280;109;19.806;-70.704;2023-12-28T01:38:52;101352.25;;;24.40;49.10
250;BME280;109;19.806;-70.704;2023-12-28T01:41:19;101361.03;;;24.29;49.19
250;BME280;109;19.806;-70.704;2023-12-28T01:43:52;101359.66;;;24.36;49.14
250;BME280;109;19.806;-70.704;2023-12-28T01:46:20;101354.25;;;25.04;47.64
250;BME280;109;19.806;-70.704;2023-12-28T01:48:54;101345.28;;;25.04;47.54
250;BME280;109;19.806;-70.704;2023-12-28T01:51:23;101346.34;;;25.01;47.96
250;BME280;109;19.806;-70.704;2023-12-28T01:53:57;101345.25;;;24.91;47.35
250;BME280;109;19.806;-70.704;2023-12-28T01:56:25;101348.94;;;25.03;47.80
250;BME280;109;19.806;-70.704;2023-12-28T01:58:58;101357.34;;;24.98;46.93
250;BME280;109;19.806;-70.704;2023-12-28T02:01:25;101362.03;;;24.96;47.35
250;BME280;109;19.806;-70.704;2023-12-28T02:03:59;101360.34;;;24.81;47.59
250;BME280;109;19.806;-70.704;2023-12-28T02:06:26;101352.34;;;24.79;47.70
250;BME280;109;19.806;-70.704;2023-12-28T02:08:59;101364.66;;;24.84;47.69
250;BME280;109;19.806;-70.704;2023-12-28T02:11:25;101361.75;;;24.87;47.29
250;BME280;109;19.806;-70.704;2023-12-28T02:13:58;101365.03;;;24.92;47.33
250;BME280;109;19.806;-70.704;2023-12-28T02:16:38;101358.66;;;24.93;47.75
250;BME280;109;19.806;-70.704;2023-12-28T02:19:45;101368.78;;;24.89;47.65
250;BME280;109;19.806;-70.704;2023-12-28T02:22:23;101364.72;;;24.96;47.71
250;BME280;109;19.806;-70.704;2023-12-28T02:25:12;101368.78;;;24.89;47.57
250;BME280;109;19.806;-70.704;2023-12-28T02:27:47;101368.63;;;24.78;48.18
250;BME280;109;19.806;-70.704;2023-12-28T02:30:17;101358.63;;;24.80;47.90
250;BME280;109;19.806;-70.704;2023-12-28T02:36:24;101358.72;;;24.78;47.54
250;BME280;109;19.806;-70.704;2023-12-28T02:39:00;101358.63;;;24.80;47.84
250;BME280;109;19.806;-70.704;2023-12-28T02:41:31;101356.09;;;24.77;48.04
250;BME280;109;19.806;-70.704;2023-12-28T02:44:08;101360.03;;;24.71;47.69
250;BME280;109;19.806;-70.704;2023-12-28T02:46:34;101357.09;;;24.62;47.75
250;BME280;109;19.806;-70.704;2023-12-28T02:49:07;101360.22;;;24.56;47.89
250;BME280;109;19.806;-70.704;2023-12-28T02:51:33;101360.47;;;24.65;47.66
250;BME280;109;19.806;-70.704;2023-12-28T02:54:08;101362.00;;;24.69;48.04
250;BME280;109;19.806;-70.704;2023-12-28T02:56:34;101350.44;;;24.67;47.92
250;BME280;109;19.806;-70.704;2023-12-28T02:59:07;101353.72;;;24.58;48.17
250;BME280;109;19.806;-70.704;2023-12-28T03:01:33;101354.63;;;24.71;47.47
250;BME280;109;19.806;-70.704;2023-12-28T03:04:06;101349.88;;;24.62;47.66
250;BME280;109;19.806;-70.704;2023-12-28T03:06:32;101351.41;;;24.66;47.31
250;BME280;109;19.806;-70.704;2023-12-28T03:09:06;101346.81;;;24.54;47.79
250;BME280;109;19.806;-70.704;2023-12-28T03:11:39;101340.72;;;24.65;47.73
250;BME280;109;19.806;-70.704;2023-12-28T03:14:13;101339.16;;;24.61;47.88
250;BME280;109;19.806;-70.704;2023-12-28T03:16:39;101332.94;;;24.73;47.38
250;BME280;109;19.806;-70.704;2023-12-28T03:19:12;101327.00;;;24.82;47.65
250;BME280;109;19.806;-70.704;2023-12-28T03:21:41;101336.84;;;24.69;47.36
250;BME280;109;19.806;-70.704;2023-12-28T03:24:15;101330.78;;;24.65;47.37
250;BME280;109;19.806;-70.704;2023-12-28T03:26:41;101331.72;;;24.78;47.63
250;BME280;109;19.806;-70.704;2023-12-28T03:29:14;101334.53;;;24.77;47.64
250;BME280;109;19.806;-70.704;2023-12-28T03:31:40;101330.25;;;24.73;47.37
250;BME280;109;19.806;-70.704;2023-12-28T03:34:14;101330.25;;;24.73;47.48
250;BME280;109;19.806;-70.704;2023-12-28T03:36:55;101326.66;;;24.60;47.42
250;BME280;109;19.806;-70.704;2023-12-28T03:39:21;101322.06;;;24.47;48.06
250;BME280;109;19.806;-70.704;2023-12-28T03:41:55;101324.13;;;24.44;48.07
250;BME280;109;19.806;-70.704;2023-12-28T03:44:22;101323.50;;;24.53;47.93
250;BME280;109;19.806;-70.704;2023-12-28T03:46:55;101325.19;;;24.41;48.14
250;BME280;109;19.806;-70.704;2023-12-28T03:49:22;101320.84;;;24.39;48.22
250;BME280;109;19.806;-70.704;2023-12-28T03:51:56;101316.31;;;24.39;48.19
250;BME280;109;19.806;-70.704;2023-12-28T03:54:22;101320.13;;;24.50;47.66
250;BME280;109;19.806;-70.704;2023-12-28T03:56:55;101315.16;;;24.43;47.76
250;BME280;109;19.806;-70.704;2023-12-28T03:59:21;101316.13;;;24.42;48.30
250;BME280;109;19.806;-70.704;2023-12-28T04:01:54;101317.56;;;24.34;48.39
250;BME280;109;19.806;-70.704;2023-12-28T04:04:20;101312.84;;;24.37;48.09
250;BME280;109;19.806;-70.704;2023-12-28T04:06:53;101309.56;;;24.32;48.37
250;BME280;109;19.806;-70.704;2023-12-28T04:09:26;101311.88;;;24.24;48.19
250;BME280;109;19.806;-70.704;2023-12-28T04:11:59;101310.06;;;24.25;48.22
250;BME280;109;19.806;-70.704;2023-12-28T04:14:26;101313.56;;;24.27;48.09
250;BME280;109;19.806;-70.704;2023-12-28T04:16:59;101315.84;;;24.19;48.45
250;BME280;109;19.806;-70.704;2023-12-28T04:19:25;101313.91;;;24.21;48.69
250;BME280;109;19.806;-70.704;2023-12-28T04:22:00;101318.34;;;24.22;48.63
250;BME280;109;19.806;-70.704;2023-12-28T04:24:26;101310.44;;;24.19;48.43
250;BME280;109;19.806;-70.704;2023-12-28T04:26:59;101307.38;;;24.25;48.21
250;BME280;109;19.806;-70.704;2023-12-28T04:29:25;101301.09;;;24.24;48.02
250;BME280;109;19.806;-70.704;2023-12-28T04:31:58;101307.28;;;24.12;48.31
250;BME280;109;19.806;-70.704;2023-12-28T04:34:44;101305.19;;;24.17;48.07
250;BME280;109;19.806;-70.704;2023-12-28T04:37:18;101303.63;;;24.13;48.12
250;BME280;109;19.806;-70.704;2023-12-28T04:39:44;101298.44;;;24.10;48.00
250;BME280;109;19.806;-70.704;2023-12-28T04:42:18;101292.19;;;24.09;48.17
250;BME280;109;19.806;-70.704;2023-12-28T04:44:45;101299.50;;;24.07;48.36
250;BME280;109;19.806;-70.704;2023-12-28T04:47:18;101291.91;;;24.00;48.46
250;BME280;109;19.806;-70.704;2023-12-28T04:49:44;101296.34;;;24.01;48.27
250;BME280;109;19.806;-70.704;2023-12-28T04:52:17;101291.91;;;24.00;48.35
250;BME280;109;19.806;-70.704;2023-12-28T04:54:43;101283.34;;;23.93;48.44
250;BME280;109;19.806;-70.704;2023-12-28T04:57:17;101284.97;;;23.96;48.33
250;BME280;109;19.806;-70.704;2023-12-28T04:59:51;101280.00;;;23.90;48.39
250;BME280;109;19.806;-70.704;2023-12-28T05:02:24;101286.72;;;23.97;48.39
250;BME280;109;19.806;-70.704;2023-12-28T05:04:50;101284.97;;;23.96;48.49
250;BME280;109;19.806;-70.704;2023-12-28T05:07:24;101275.38;;;23.92;48.68
250;BME280;109;19.806;-70.704;2023-12-28T05:09:50;101274.19;;;23.96;48.63
250;BME280;109;19.806;-70.704;2023-12-28T05:12:24;101270.28;;;23.87;48.77
250;BME280;109;19.806;-70.704;2023-12-28T05:14:50;101276.38;;;23.77;48.60
250;BME280;109;19.806;-70.704;2023-12-28T05:17:26;101280.69;;;23.79;48.89
250;BME280;109;19.806;-70.704;2023-12-28T05:19:52;101274.00;;;23.70;48.83
250;BME280;109;19.806;-70.704;2023-12-28T05:22:26;101270.97;;;23.77;48.75
250;BME280;109;19.806;-70.704;2023-12-28T05:24:52;101264.63;;;23.78;48.70
250;BME280;109;19.806;-70.704;2023-12-28T05:27:25;101267.50;;;23.89;48.56
250;BME280;109;19.806;-70.704;2023-12-28T05:29:51;101265.66;;;23.75;48.81
250;BME280;109;19.806;-70.704;2023-12-28T05:32:24;101256.03;;;23.85;48.51
250;BME280;109;19.806;-70.704;2023-12-28T05:35:10;101262.28;;;23.71;48.60
250;BME280;109;19.806;-70.704;2023-12-28T05:37:44;101251.69;;;23.68;48.73
250;BME280;109;19.806;-70.704;2023-12-28T05:40:11;101255.06;;;23.72;48.64
250;BME280;109;19.806;-70.704;2023-12-28T05:42:44;101247.84;;;23.72;48.64
250;BME280;109;19.806;-70.704;2023-12-28T05:45:17;101256.19;;;23.68;48.69
250;BME280;109;19.806;-70.704;2023-12-28T05:47:50;101253.50;;;23.68;48.77
250;BME280;109;19.806;-70.704;2023-12-28T05:50:16;101247.38;;;23.66;48.84
250;BME280;109;19.806;-70.704;2023-12-28T05:52:49;101245.56;;;23.66;48.63
250;BME280;109;19.806;-70.704;2023-12-28T05:55:15;101240.53;;;23.60;48.76
250;BME280;109;19.806;-70.704;2023-12-28T05:57:48;101245.75;;;23.63;48.72
250;BME280;109;19.806;-70.704;2023-12-28T06:00:14;101241.41;;;23.61;48.53
250;BME280;109;19.806;-70.704;2023-12-28T06:02:49;101239.66;;;23.60;48.73
250;BME280;109;19.806;-70.704;2023-12-28T06:05:18;101232.53;;;23.59;48.78
250;BME280;109;19.806;-70.704;2023-12-28T06:07:51;101234.88;;;23.65;48.60
250;BME280;109;19.806;-70.704;2023-12-28T06:10:17;101230.63;;;23.61;48.71
250;BME280;109;19.806;-70.704;2023-12-28T06:12:51;101235.81;;;23.64;48.62
250;BME280;109;19.806;-70.704;2023-12-28T06:15:17;101229.94;;;23.57;48.86
250;BME280;109;19.806;-70.704;2023-12-28T06:17:51;101237.25;;;23.55;49.02
250;BME280;109;19.806;-70.704;2023-12-28T06:20:20;101233.13;;;23.64;48.69
250;BME280;109;19.806;-70.704;2023-12-28T06:22:53;101217.34;;;23.58;48.98
250;BME280;109;19.806;-70.704;2023-12-28T06:25:19;101217.84;;;23.50;49.07
250;BME280;109;19.806;-70.704;2023-12-28T06:27:52;101210.53;;;23.52;49.06
250;BME280;109;19.806;-70.704;2023-12-28T06:30:18;101207.25;;;23.47;49.49
250;BME280;109;19.806;-70.704;2023-12-28T06:32:59;101207.44;;;23.44;49.03
250;BME280;109;19.806;-70.704;2023-12-28T06:35:39;101201.97;;;23.46;49.24
250;BME280;109;19.806;-70.704;2023-12-28T06:38:05;101202.06;;;23.44;49.01
250;BME280;109;19.806;-70.704;2023-12-28T06:40:38;101196.31;;;23.36;49.07
250;BME280;109;19.806;-70.704;2023-12-28T06:43:04;101192.16;;;23.45;49.05
250;BME280;109;19.806;-70.704;2023-12-28T06:45:37;101195.72;;;23.45;49.08
250;BME280;109;19.806;-70.704;2023-12-28T06:48:04;101197.44;;;23.46;48.87
250;BME280;109;19.806;-70.704;2023-12-28T06:50:38;101200.72;;;23.37;48.91
250;BME280;109;19.806;-70.704;2023-12-28T06:53:04;101198.50;;;23.44;48.92
250;BME280;109;19.806;-70.704;2023-12-28T06:55:37;101200.59;;;23.24;49.14
250;BME280;109;19.806;-70.704;2023-12-28T06:58:03;101197.72;;;23.41;48.88
250;BME280;109;19.806;-70.704;2023-12-28T07:00:36;101200.03;;;23.48;48.82
250;BME280;109;19.806;-70.704;2023-12-28T07:03:02;101201.41;;;23.40;48.92
250;BME280;109;19.806;-70.704;2023-12-28T07:05:36;101198.31;;;23.32;49.14
250;BME280;109;19.806;-70.704;2023-12-28T07:08:02;101193.53;;;23.37;48.94
250;BME280;109;19.806;-70.704;2023-12-28T07:10:36;101188.22;;;23.36;48.86
250;BME280;109;19.806;-70.704;2023-12-28T07:13:02;101187.47;;;23.34;49.20
250;BME280;109;19.806;-70.704;2023-12-28T07:15:36;101185.91;;;23.30;49.10
250;BME280;109;19.806;-70.704;2023-12-28T07:18:02;101176.84;;;23.45;48.68
250;BME280;109;19.806;-70.704;2023-12-28T07:20:36;101180.06;;;23.37;48.92
250;BME280;109;19.806;-70.704;2023-12-28T07:23:02;101182.63;;;23.25;49.10
250;BME280;109;19.806;-70.704;2023-12-28T07:25:36;101180.91;;;23.24;48.91
250;BME280;109;19.806;-70.704;2023-12-28T07:28:02;101173.69;;;23.24;49.02
250;BME280;109;19.806;-70.704;2023-12-28T07:30:43;101168.75;;;23.17;49.16
250;BME280;109;19.806;-70.704;2023-12-28T07:33:17;101172.31;;;23.17;49.06
250;BME280;109;19.806;-70.704;2023-12-28T07:36:03;101169.34;;;23.22;49.09
250;BME280;109;19.806;-70.704;2023-12-28T07:38:39;101171.38;;;23.18;49.00
250;BME280;109;19.806;-70.704;2023-12-28T07:41:05;101171.84;;;23.25;49.01
250;BME280;109;19.806;-70.704;2023-12-28T07:43:39;101174.38;;;23.28;48.91
250;BME280;109;19.806;-70.704;2023-12-28T07:46:05;101165.44;;;23.27;48.81
250;BME280;109;19.806;-70.704;2023-12-28T07:48:38;101166.97;;;23.31;48.78
250;BME280;109;19.806;-70.704;2023-12-28T07:51:05;101161.91;;;23.27;48.84
250;BME280;109;19.806;-70.704;2023-12-28T07:53:38;101172.03;;;23.22;49.06
250;BME280;109;19.806;-70.704;2023-12-28T07:56:04;101173.69;;;23.24;49.04
250;BME280;109;19.806;-70.704;2023-12-28T07:58:38;101175.59;;;23.22;48.91
250;BME280;109;19.806;-70.704;2023-12-28T08:01:10;101168.75;;;23.17;49.10
250;BME280;109;19.806;-70.704;2023-12-28T08:03:44;101173.88;;;23.07;49.08
250;BME280;109;19.806;-70.704;2023-12-28T08:06:10;101170.91;;;23.12;49.07
250;BME280;109;19.806;-70.704;2023-12-28T08:08:52;101172.63;;;23.13;49.09
250;BME280;109;19.806;-70.704;2023-12-28T08:11:28;101172.72;;;23.11;48.94
250;BME280;109;19.806;-70.704;2023-12-28T08:13:55;101172.72;;;23.11;49.11
250;BME280;109;19.806;-70.704;2023-12-28T08:16:28;101173.00;;;23.06;49.21
250;BME280;109;19.806;-70.704;2023-12-28T08:18:54;101173.28;;;23.02;49.25
250;BME280;109;19.806;-70.704;2023-12-28T08:21:27;101180.59;;;23.00;49.20
250;BME280;109;19.806;-70.704;2023-12-28T08:23:53;101182.34;;;23.01;49.24
250;BME280;109;19.806;-70.704;2023-12-28T08:26:26;101172.31;;;23.03;49.22
250;BME280;109;19.806;-70.704;2023-12-28T08:28:52;101169.84;;;23.00;49.13
250;BME280;109;19.806;-70.704;2023-12-28T08:31:25;101173.00;;;23.06;49.00
250;BME280;109;19.806;-70.704;2023-12-28T08:34:11;101171.34;;;23.04;49.17
250;BME280;109;19.806;-70.704;2023-12-28T08:36:45;101168.56;;;23.05;49.07
250;BME280;109;19.806;-70.704;2023-12-28T08:39:20;101166.94;;;23.03;49.26
250;BME280;109;19.806;-70.704;2023-12-28T08:42:06;101162.41;;;22.89;49.30
250;BME280;109;19.806;-70.704;2023-12-28T08:44:40;101155.97;;;22.92;49.09
250;BME280;109;19.806;-70.704;2023-12-28T08:47:06;101157.34;;;22.99;48.86
250;BME280;109;19.806;-70.704;2023-12-28T08:49:39;101156.56;;;22.97;49.30
250;BME280;109;19.806;-70.704;2023-12-28T08:52:05;101161.06;;;22.82;49.25
250;BME280;109;19.806;-70.704;2023-12-28T08:54:38;101157.44;;;22.97;49.26
250;BME280;109;19.806;-70.704;2023-12-28T08:57:06;101156.84;;;23.06;49.01
250;BME280;109;19.806;-70.704;2023-12-28T08:59:39;101160.31;;;23.09;49.00
250;BME280;109;19.806;-70.704;2023-12-28T09:02:06;101158.84;;;23.03;49.02
250;BME280;109;19.806;-70.704;2023-12-28T09:04:40;101150.69;;;23.04;49.08
250;BME280;109;19.806;-70.704;2023-12-28T09:07:14;101154.25;;;22.91;49.39
250;BME280;109;19.806;-70.704;2023-12-28T09:09:49;101154.06;;;22.94;49.34
250;BME280;109;19.806;-70.704;2023-12-28T09:12:16;101154.25;;;22.91;49.18
250;BME280;109;19.806;-70.704;2023-12-28T09:14:49;101152.63;;;22.88;49.09
250;BME280;109;19.806;-70.704;2023-12-28T09:17:21;101160.69;;;22.88;49.20
250;BME280;109;19.806;-70.704;2023-12-28T09:19:55;101157.25;;;23.00;49.04
250;BME280;109;19.806;-70.704;2023-12-28T09:22:22;101167.69;;;22.91;49.21
250;BME280;109;19.806;-70.704;2023-12-28T09:24:55;101173.38;;;22.86;49.38
250;BME280;109;19.806;-70.704;2023-12-28T09:27:21;101171.66;;;22.85;49.08
250;BME280;109;19.806;-70.704;2023-12-28T09:29:54;101172.00;;;22.79;49.29
250;BME280;109;19.806;-70.704;2023-12-28T09:32:20;101180.28;;;22.90;49.02
250;BME280;109;19.806;-70.704;2023-12-28T09:34:53;101179.91;;;22.82;49.13
250;BME280;109;19.806;-70.704;2023-12-28T09:37:40;101193.00;;;22.88;49.33
250;BME280;109;19.806;-70.704;2023-12-28T09:40:13;101183.84;;;22.91;49.37
250;BME280;109;19.806;-70.704;2023-12-28T09:42:48;101184.41;;;22.82;49.26
250;BME280;109;19.806;-70.704;2023-12-28T09:45:24;101207.59;;;22.84;49.39
250;BME280;109;19.806;-70.704;2023-12-28T09:47:52;101194.69;;;22.89;49.19
250;BME280;109;19.806;-70.704;2023-12-28T09:50:25;101201.63;;;22.93;49.21
250;BME280;109;19.806;-70.704;2023-12-28T09:52:53;101199.91;;;22.92;49.10
250;BME280;109;19.806;-70.704;2023-12-28T09:55:29;101209.97;;;22.89;49.26
250;BME280;109;19.806;-70.704;2023-12-28T09:57:57;101210.09;;;22.87;49.19
250;BME280;109;19.806;-70.704;2023-12-28T10:00:31;101206.72;;;22.84;49.23
250;BME280;109;19.806;-70.704;2023-12-28T10:02:58;101213.31;;;22.78;49.37
250;BME280;109;19.806;-70.704;2023-12-28T10:05:31;101214.72;;;22.69;49.54
250;BME280;109;19.806;-70.704;2023-12-28T10:08:05;101216.19;;;22.75;49.35
250;BME280;109;19.806;-70.704;2023-12-28T10:10:38;101218.63;;;22.64;49.41
250;BME280;109;19.806;-70.704;2023-12-28T10:13:06;101217.31;;;22.71;49.50
250;BME280;109;19.806;-70.704;2023-12-28T10:15:40;101218.09;;;22.73;49.15
250;BME280;109;19.806;-70.704;2023-12-28T10:18:06;101221.91;;;22.69;49.56
250;BME280;109;19.806;-70.704;2023-12-28T10:20:39;101221.31;;;22.64;49.56
250;BME280;109;19.806;-70.704;2023-12-28T10:23:05;101224.88;;;22.64;49.52
250;BME280;109;19.806;-70.704;2023-12-28T10:25:39;101231.72;;;22.70;49.58
250;BME280;109;19.806;-70.704;2023-12-28T10:28:06;101231.38;;;22.76;49.59
250;BME280;109;19.806;-70.704;2023-12-28T10:30:39;101234.31;;;22.71;49.54
250;BME280;109;19.806;-70.704;2023-12-28T10:33:08;101232.94;;;22.64;49.50
250;BME280;109;19.806;-70.704;2023-12-28T10:35:41;101231.72;;;22.70;49.16
250;BME280;109;19.806;-70.704;2023-12-28T10:38:34;101239.72;;;22.71;49.46
250;BME280;109;19.806;-70.704;2023-12-28T10:41:10;101237.09;;;22.70;49.37
250;BME280;109;19.806;-70.704;2023-12-28T11:03:09;101234.41;;;22.70;49.26
250;BME280;109;19.806;-70.704;2023-12-28T11:05:40;101236.41;;;22.82;49.42
250;BME280;109;19.806;-70.704;2023-12-28T11:08:07;101236.41;;;22.82;49.25
250;BME280;109;19.806;-70.704;2023-12-28T11:10:35;101229.47;;;22.78;49.34
250;BME280;109;19.806;-70.704;2023-12-28T11:13:03;101233.28;;;22.74;49.31
250;BME280;109;19.806;-70.704;2023-12-28T11:15:30;101238.84;;;22.71;49.43
250;BME280;109;19.806;-70.704;2023-12-28T11:17:57;101235.38;;;22.69;49.23
250;BME280;109;19.806;-70.704;2023-12-28T11:20:25;101242.31;;;22.73;49.06
250;BME280;109;19.806;-70.704;2023-12-28T11:22:52;101247.00;;;22.69;49.44
250;BME280;109;19.806;-70.704;2023-12-28T11:25:19;101250.13;;;22.78;49.13
250;BME280;109;19.806;-70.704;2023-12-28T11:27:46;101252.47;;;22.68;49.29
250;BME280;109;19.806;-70.704;2023-12-28T11:30:13;101253.34;;;22.68;48.96
250;BME280;109;19.806;-70.704;2023-12-28T11:32:43;101249.59;;;22.71;49.14
250;BME280;109;19.806;-70.704;2023-12-28T11:35:13;101255.16;;;22.68;49.22
250;BME280;109;19.806;-70.704;2023-12-28T11:37:42;101249.94;;;22.81;49.08
250;BME280;109;19.806;-70.704;2023-12-28T11:40:13;101258.44;;;22.73;49.29
250;BME280;109;19.806;-70.704;2023-12-28T11:42:53;101258.97;;;22.80;49.20
250;BME280;109;19.806;-70.704;2023-12-28T11:45:22;101261.56;;;22.81;49.24
250;BME280;109;19.806;-70.704;2023-12-28T11:48:01;101263.13;;;22.85;49.01
250;BME280;109;19.806;-70.704;2023-12-28T11:50:28;101260.25;;;22.88;49.12
250;BME280;109;19.806;-70.704;2023-12-28T11:52:55;101263.81;;;23.03;49.13
250;BME280;109;19.806;-70.704;2023-12-28T11:55:22;101265.66;;;23.02;48.98
250;BME280;109;19.806;-70.704;2023-12-28T11:57:49;101275.50;;;23.18;48.84
250;BME280;109;19.806;-70.704;2023-12-28T12:00:16;101273.16;;;23.27;48.74
250;BME280;109;19.806;-70.704;2023-12-28T12:02:45;101265.75;;;23.45;48.52
250;BME280;109;19.806;-70.704;2023-12-28T12:05:12;101272.47;;;22.94;49.53
250;BME280;109;19.806;-70.704;2023-12-28T12:07:39;101269.13;;;23.63;48.50
250;BME280;109;19.806;-70.704;2023-12-28T12:10:06;101279.78;;;23.93;48.00
250;BME280;109;19.806;-70.704;2023-12-28T12:12:32;101283.16;;;23.96;48.16
250;BME280;109;19.806;-70.704;2023-12-28T12:15:00;101283.31;;;24.07;47.78
250;BME280;109;19.806;-70.704;2023-12-28T12:17:26;101287.97;;;24.05;47.97
250;BME280;109;19.806;-70.704;2023-12-28T12:19:54;101284.97;;;24.10;48.19
250;BME280;109;19.806;-70.704;2023-12-28T12:22:21;101291.22;;;24.10;47.98
250;BME280;109;19.806;-70.704;2023-12-28T12:24:49;101295.94;;;24.07;48.04
250;BME280;109;19.806;-70.704;2023-12-28T12:27:17;101292.28;;;23.94;48.19
250;BME280;109;19.806;-70.704;2023-12-28T12:29:44;101291.28;;;24.23;47.77
250;BME280;109;19.806;-70.704;2023-12-28T12:32:10;101290.06;;;24.29;48.23
250;BME280;109;19.806;-70.704;2023-12-28T12:34:38;101297.28;;;24.28;47.93
250;BME280;109;19.806;-70.704;2023-12-28T12:37:05;101295.91;;;24.35;48.03
250;BME280;109;19.806;-70.704;2023-12-28T12:39:32;101297.09;;;24.31;47.54
250;BME280;109;19.806;-70.704;2023-12-28T12:41:58;101294.31;;;24.45;47.88
250;BME280;109;19.806;-70.704;2023-12-28T12:44:28;101299.13;;;24.55;47.92
250;BME280;109;19.806;-70.704;2023-12-28T12:47:01;101301.53;;;24.72;47.67
250;BME280;109;19.806;-70.704;2023-12-28T12:49:28;101307.25;;;24.67;47.53
250;BME280;109;19.806;-70.704;2023-12-28T12:51:55;101312.13;;;25.14;47.56
250;BME280;109;19.806;-70.704;2023-12-28T12:54:21;101304.91;;;25.15;47.05
250;BME280;109;19.806;-70.704;2023-12-28T12:56:50;101313.38;;;25.36;47.11
250;BME280;109;19.806;-70.704;2023-12-28T12:59:16;101319.00;;;25.45;47.49
250;BME280;109;19.806;-70.704;2023-12-28T13:01:44;101308.97;;;25.60;46.56
250;BME280;109;19.806;-70.704;2023-12-28T13:04:11;101313.94;;;25.79;46.26
250;BME280;109;19.806;-70.704;2023-12-28T13:06:38;101315.63;;;25.93;46.88
250;BME280;109;19.806;-70.704;2023-12-28T13:09:05;101307.75;;;25.90;46.38
250;BME280;109;19.806;-70.704;2023-12-28T13:11:34;101312.50;;;25.99;46.04
250;BME280;109;19.806;-70.704;2023-12-28T13:14:01;101304.97;;;26.28;45.90
250;BME280;109;19.806;-70.704;2023-12-28T13:16:27;101315.34;;;26.34;45.94
250;BME280;109;19.806;-70.704;2023-12-28T13:18:54;101314.81;;;26.29;45.53
250;BME280;109;19.806;-70.704;2023-12-28T13:21:21;101316.66;;;26.28;45.71
250;BME280;109;19.806;-70.704;2023-12-28T13:23:48;101315.69;;;26.29;46.25
250;BME280;109;19.806;-70.704;2023-12-28T13:26:14;101315.06;;;26.26;46.20
250;BME280;109;19.806;-70.704;2023-12-28T13:28:41;101326.50;;;26.29;46.09
250;BME280;109;19.806;-70.704;2023-12-28T13:31:09;101327.69;;;26.38;46.41
250;BME280;109;19.806;-70.704;2023-12-28T13:33:36;101326.88;;;26.48;46.40
250;BME280;109;19.806;-70.704;2023-12-28T13:36:03;101325.94;;;26.61;46.20
250;BME280;109;19.806;-70.704;2023-12-28T13:38:30;101328.34;;;26.65;45.95
250;BME280;109;19.806;-70.704;2023-12-28T13:40:57;101329.09;;;26.54;46.41
250;BME280;109;19.806;-70.704;2023-12-28T13:43:23;101325.38;;;26.68;45.86
250;BME280;109;19.806;-70.704;2023-12-28T13:45:50;101321.63;;;26.58;45.73
250;BME280;109;19.806;-70.704;2023-12-28T13:48:16;101320.34;;;26.64;45.04
250;BME280;109;19.806;-70.704;2023-12-28T13:50:43;101318.75;;;26.96;45.31